Time;durP1;ratioP1;P1;durP2;ratioP2;P2;SDS_P1;SDS_P2;PMS_P1;PMS_P2;Temp;Humidity;BMP_temperature;BMP_pressure;BME280_temperature;BME280_humidity;BME280_pressure;Samples;Min_cycle;Max_cycle;Signal;HPM_P1;HPM_P2
2022/01/27 00:00:38;;;;;;;;;;;;;;;6.94;54.73;101883.91;5024566;28;6896;-70
2022/01/27 00:05:33;;;;;;;;;;;;;;;6.92;55.36;101890.53;5040053;28;6815;-71
2022/01/27 00:08:10;;;;;;;;;;;;;;;6.92;54.84;101885.44;5026814;28;6883;-70
2022/01/27 00:10:53;;;;;;;;;;;;;;;6.91;55.16;101883.66;5029164;28;6835;-71
2022/01/27 00:13:28;;;;;;;;;;;;;;;6.91;54.90;101891.31;5026426;28;7283;-70
2022/01/27 00:16:00;;;;;;;;;;;;;;;6.92;55.30;101872.69;5041492;28;7379;-70
2022/01/27 00:18:29;;;;;;;;;;;;;;;6.94;54.58;101866.06;5027424;28;7047;-70
2022/01/27 00:20:55;;;;;;;;;;;;;;;6.94;54.59;101866.97;5060633;28;7227;-71
2022/01/27 00:23:21;;;;;;;;;;;;;;;6.94;55.08;101864.44;5027789;28;6910;-71
2022/01/27 00:25:47;;;;;;;;;;;;;;;6.95;55.34;101860.19;5041017;28;6795;-71
2022/01/27 00:28:12;;;;;;;;;;;;;;;6.95;54.90;101850.91;5025649;28;6879;-71
2022/01/27 00:30:39;;;;;;;;;;;;;;;6.99;55.30;101863.91;5039897;28;7398;-70
2022/01/27 00:33:05;;;;;;;;;;;;;;;6.98;55.23;101847.75;5044919;28;7134;-70
2022/01/27 00:35:32;;;;;;;;;;;;;;;7.00;55.39;101846.22;5059388;28;7163;-70
2022/01/27 00:37:59;;;;;;;;;;;;;;;7.00;55.55;101825.81;5017640;28;7118;-70
2022/01/27 00:40:24;;;;;;;;;;;;;;;7.00;55.46;101837.66;5017420;28;6801;-70
2022/01/27 00:42:51;;;;;;;;;;;;;;;7.01;54.91;101832.69;5027616;28;6871;-70
2022/01/27 00:45:17;;;;;;;;;;;;;;;7.02;55.40;101834.47;5024213;28;6945;-70
2022/01/27 00:47:43;;;;;;;;;;;;;;;7.03;54.88;101832.84;5023693;28;7180;-70
2022/01/27 00:50:09;;;;;;;;;;;;;;;7.03;55.15;101826.06;5036990;28;7919;-70
2022/01/27 00:52:41;;;;;;;;;;;;;;;7.04;55.39;101822.75;5017755;28;7031;-71
2022/01/27 00:55:09;;;;;;;;;;;;;;;7.07;55.45;101817.03;5038258;28;8707;-71
2022/01/27 00:57:51;;;;;;;;;;;;;;;7.08;55.11;101813.72;5012951;28;7217;-70
2022/01/27 01:00:28;;;;;;;;;;;;;;;7.11;55.25;101815.63;5032755;28;6982;-71
2022/01/27 01:03:04;;;;;;;;;;;;;;;7.10;55.52;101791.81;5022892;28;7164;-71
2022/01/27 01:16:46;;;;;;;;;;;;;;;7.12;55.41;101769.88;5036206;28;6900;-70
2022/01/27 01:19:37;;;;;;;;;;;;;;;7.13;55.13;101763.09;5035743;28;7290;-70
2022/01/27 01:32:57;;;;;;;;;;;;;;;7.12;55.26;101725.63;5020766;28;6910;-71
2022/01/27 01:35:29;;;;;;;;;;;;;;;7.13;55.81;101709.56;5031913;28;6804;-70
2022/01/27 01:37:56;;;;;;;;;;;;;;;7.12;55.07;101707.78;5027915;28;6804;-70
2022/01/27 01:40:22;;;;;;;;;;;;;;;7.12;55.25;101716.34;5029081;28;6945;-70
2022/01/27 01:42:48;;;;;;;;;;;;;;;7.13;55.12;101727.41;5036959;28;6791;-70
2022/01/27 01:45:18;;;;;;;;;;;;;;;7.14;55.12;101731.75;5030156;28;6854;-70
2022/01/27 01:47:46;;;;;;;;;;;;;;;7.13;55.77;101735.97;5020946;28;7164;-70
2022/01/27 01:50:14;;;;;;;;;;;;;;;7.15;55.60;101746.31;5028851;28;7443;-70
2022/01/27 01:52:43;;;;;;;;;;;;;;;7.16;54.99;101760.84;5044110;28;6815;-70
2022/01/27 01:55:11;;;;;;;;;;;;;;;7.19;55.06;101766.19;5019427;28;6911;-71
2022/01/27 01:57:38;;;;;;;;;;;;;;;7.20;55.44;101760.31;5037563;28;6812;-71
2022/01/27 02:00:09;;;;;;;;;;;;;;;7.21;55.11;101754.44;5029695;28;7653;-71
2022/01/27 02:02:34;;;;;;;;;;;;;;;7.21;55.43;101740.06;5008383;28;7086;-71
2022/01/27 02:05:00;;;;;;;;;;;;;;;7.22;55.70;101736.72;5025281;28;7299;-71
2022/01/27 02:07:46;;;;;;;;;;;;;;;7.23;55.58;101735.06;5025875;28;7154;-71
2022/01/27 02:18:08;;;;;;;;;;;;;;;7.25;55.46;101713.16;5047174;28;7115;-70
2022/01/27 02:20:39;;;;;;;;;;;;;;;7.26;55.39;101706.38;5044269;28;7056;-70
2022/01/27 02:23:08;;;;;;;;;;;;;;;7.28;55.84;101694.63;5037381;28;7051;-71
2022/01/27 02:25:36;;;;;;;;;;;;;;;7.28;55.90;101698.09;5031957;28;7953;-70
2022/01/27 02:28:03;;;;;;;;;;;;;;;7.29;55.66;101698.97;5027805;28;7073;-70
2022/01/27 02:30:30;;;;;;;;;;;;;;;7.30;55.53;101683.78;5026141;28;6833;-70
2022/01/27 02:32:55;;;;;;;;;;;;;;;7.30;54.94;101670.16;5029349;28;7034;-70
2022/01/27 02:35:32;;;;;;;;;;;;;;;7.30;55.32;101681.25;5038521;28;7077;-70
2022/01/27 02:37:58;;;;;;;;;;;;;;;7.32;55.20;101678.84;5029067;28;6827;-70
2022/01/27 02:40:28;;;;;;;;;;;;;;;7.31;56.05;101680.47;5024499;28;6891;-70
2022/01/27 02:42:54;;;;;;;;;;;;;;;7.34;55.52;101683.31;5028334;28;7217;-70
2022/01/27 02:45:35;;;;;;;;;;;;;;;7.38;55.29;101670.78;5028347;28;7087;-70
2022/01/27 02:48:01;;;;;;;;;;;;;;;7.40;55.98;101669.25;5037818;28;6820;-70
2022/01/27 02:50:26;;;;;;;;;;;;;;;7.39;55.65;101653.06;5039638;28;6788;-70
2022/01/27 02:52:52;;;;;;;;;;;;;;;7.41;55.99;101660.81;5027249;28;6883;-70
2022/01/27 02:55:18;;;;;;;;;;;;;;;7.44;55.70;101658.53;5019513;28;7351;-70
2022/01/27 02:57:43;;;;;;;;;;;;;;;7.45;55.15;101655.22;5031515;28;6866;-70
2022/01/27 03:00:09;;;;;;;;;;;;;;;7.47;55.26;101654.56;5035785;28;6791;-70
2022/01/27 03:02:36;;;;;;;;;;;;;;;7.50;55.28;101644.63;5035874;28;6918;-70
2022/01/27 03:05:03;;;;;;;;;;;;;;;7.54;55.88;101645.75;5015891;28;7058;-71
2022/01/27 03:07:29;;;;;;;;;;;;;;;7.56;55.30;101645.84;5047043;28;6784;-71
2022/01/27 03:09:55;;;;;;;;;;;;;;;7.57;55.74;101642.53;5025126;28;6791;-70
2022/01/27 03:12:27;;;;;;;;;;;;;;;7.59;55.21;101636.78;5015528;28;7023;-70
2022/01/27 03:14:53;;;;;;;;;;;;;;;7.63;56.02;101632.81;5010403;28;7072;-71
2022/01/27 03:17:19;;;;;;;;;;;;;;;7.66;55.50;101624.53;5032226;28;6907;-72
2022/01/27 03:19:45;;;;;;;;;;;;;;;7.69;54.91;101622.22;5047339;28;7177;-71
2022/01/27 03:22:11;;;;;;;;;;;;;;;7.72;55.27;101619.91;5045648;28;7133;-71
2022/01/27 03:24:37;;;;;;;;;;;;;;;7.74;55.41;101610.72;5046768;28;6962;-71
2022/01/27 03:27:14;;;;;;;;;;;;;;;7.77;55.62;101595.63;5047552;28;7230;-71
2022/01/27 03:29:40;;;;;;;;;;;;;;;7.80;55.41;101602.66;5025724;28;7366;-71
2022/01/27 03:32:06;;;;;;;;;;;;;;;7.81;55.54;101605.31;5031199;28;6872;-71
2022/01/27 03:34:32;;;;;;;;;;;;;;;7.85;55.63;101612.44;5048168;28;6792;-71
2022/01/27 03:36:58;;;;;;;;;;;;;;;7.89;54.80;101613.59;5046315;28;6795;-71
2022/01/27 03:39:24;;;;;;;;;;;;;;;7.92;55.08;101601.97;5046064;28;7855;-71
2022/01/27 03:41:51;;;;;;;;;;;;;;;7.93;55.75;101597.72;5016953;28;7263;-71
2022/01/27 03:44:19;;;;;;;;;;;;;;;7.98;55.02;101600.63;5021291;28;7908;-70
2022/01/27 03:46:45;;;;;;;;;;;;;;;8.02;55.02;101589.91;5034707;28;7217;-70
2022/01/27 03:49:11;;;;;;;;;;;;;;;8.05;55.67;101605.44;5044875;28;6887;-70
2022/01/27 03:51:37;;;;;;;;;;;;;;;8.08;55.67;101603.13;5037944;28;6958;-70
2022/01/27 03:54:03;;;;;;;;;;;;;;;8.12;54.41;101597.50;5040295;28;7270;-70
2022/01/27 03:56:28;;;;;;;;;;;;;;;8.14;55.21;101593.41;5029541;28;7380;-70
2022/01/27 03:58:54;;;;;;;;;;;;;;;8.17;55.58;101588.53;5028877;28;6911;-70
2022/01/27 04:01:21;;;;;;;;;;;;;;;8.20;54.35;101578.53;5042432;28;7084;-70
2022/01/27 04:03:46;;;;;;;;;;;;;;;8.22;54.28;101581.22;5038521;28;7264;-70
2022/01/27 04:06:19;;;;;;;;;;;;;;;8.24;55.03;101569.44;5040744;28;6902;-70
2022/01/27 04:08:45;;;;;;;;;;;;;;;8.27;55.65;101571.34;5010409;28;6982;-71
2022/01/27 04:11:10;;;;;;;;;;;;;;;8.30;55.26;101569.00;5027014;28;7237;-71
2022/01/27 04:13:37;;;;;;;;;;;;;;;8.31;55.15;101561.47;5032135;28;7244;-71
2022/01/27 04:16:06;;;;;;;;;;;;;;;8.35;54.58;101560.03;5024165;28;6815;-71
2022/01/27 04:18:32;;;;;;;;;;;;;;;8.38;54.93;101565.38;5033711;28;6871;-71
2022/01/27 04:20:57;;;;;;;;;;;;;;;8.41;54.49;101568.19;5026634;28;6898;-71
2022/01/27 04:23:24;;;;;;;;;;;;;;;8.44;54.95;101568.41;5035283;28;7200;-71
2022/01/27 04:25:50;;;;;;;;;;;;;;;8.47;54.78;101583.09;5021841;28;6876;-71
2022/01/27 04:28:24;;;;;;;;;;;;;;;8.49;55.04;101566.19;5015936;28;6859;-71
2022/01/27 04:30:52;;;;;;;;;;;;;;;8.52;54.64;101571.56;5022281;28;7951;-71
2022/01/27 04:33:17;;;;;;;;;;;;;;;8.53;54.03;101577.56;5020389;28;7077;-71
2022/01/27 04:35:47;;;;;;;;;;;;;;;8.57;55.35;101565.16;5040804;28;7864;-71
2022/01/27 04:46:13;;;;;;;;;;;;;;;8.65;54.45;101568.25;5026155;28;7287;-71
2022/01/27 04:48:45;;;;;;;;;;;;;;;8.67;54.95;101555.59;5033439;28;6992;-71
2022/01/27 04:51:14;;;;;;;;;;;;;;;8.69;54.04;101554.03;5022201;28;6835;-71
2022/01/27 04:53:56;;;;;;;;;;;;;;;8.71;54.00;101557.59;5062764;28;8086;-71
2022/01/27 04:56:24;;;;;;;;;;;;;;;8.73;55.27;101556.94;5045228;28;6915;-71
2022/01/27 04:58:55;;;;;;;;;;;;;;;8.75;54.69;101554.50;5012483;28;6804;-71
2022/01/27 05:01:27;;;;;;;;;;;;;;;8.79;53.96;101555.59;5029562;28;6815;-71
2022/01/27 05:04:01;;;;;;;;;;;;;;;8.81;55.14;101546.41;5030989;28;7069;-71
2022/01/27 05:06:27;;;;;;;;;;;;;;;8.81;54.93;101542.16;5030865;28;7892;-71
2022/01/27 05:08:54;;;;;;;;;;;;;;;8.84;54.94;101528.72;5006252;28;6776;-71
2022/01/27 05:11:28;;;;;;;;;;;;;;;8.84;54.70;101534.75;5035903;28;7150;-71
2022/01/27 05:16:22;;;;;;;;;;;;;;;8.87;54.63;101518.72;5027005;28;6831;-71
2022/01/27 05:18:48;;;;;;;;;;;;;;;8.89;54.39;101522.28;5019298;28;6858;-71
2022/01/27 05:21:14;;;;;;;;;;;;;;;8.89;55.43;101517.19;5005106;28;6969;-71
2022/01/27 05:23:39;;;;;;;;;;;;;;;8.90;55.37;101508.72;5025969;28;6808;-71
2022/01/27 05:26:05;;;;;;;;;;;;;;;8.88;54.27;101490.72;5038348;28;7899;-71
2022/01/27 05:28:31;;;;;;;;;;;;;;;8.89;54.31;101501.84;5039482;28;6828;-71
2022/01/27 05:30:57;;;;;;;;;;;;;;;8.86;54.70;101488.81;5037244;28;6792;-71
2022/01/27 05:33:23;;;;;;;;;;;;;;;8.85;54.53;101466.59;5028204;28;7142;-70
2022/01/27 05:35:49;;;;;;;;;;;;;;;8.81;54.25;101467.16;5026381;28;6807;-71
2022/01/27 05:38:16;;;;;;;;;;;;;;;8.77;54.36;101496.72;5027270;28;6965;-71
2022/01/27 05:40:44;;;;;;;;;;;;;;;8.75;54.38;101483.81;5038421;28;6812;-71
2022/01/27 05:43:11;;;;;;;;;;;;;;;8.77;55.21;101491.59;5018615;28;7018;-71
2022/01/27 05:45:38;;;;;;;;;;;;;;;8.78;55.17;101492.47;5018726;28;7149;-71
2022/01/27 05:48:04;;;;;;;;;;;;;;;8.83;54.66;101480.94;5042384;28;7143;-71
2022/01/27 05:50:31;;;;;;;;;;;;;;;8.87;54.94;101473.59;5025339;28;7235;-71
2022/01/27 05:52:56;;;;;;;;;;;;;;;8.90;55.16;101470.38;5028431;28;6815;-71
2022/01/27 05:55:23;;;;;;;;;;;;;;;8.93;55.08;101475.69;5035387;28;6944;-71
2022/01/27 05:57:48;;;;;;;;;;;;;;;8.96;55.09;101475.91;5024048;28;7401;-71
2022/01/27 06:00:14;;;;;;;;;;;;;;;8.99;54.72;101473.59;5006405;28;6918;-71
2022/01/27 06:02:40;;;;;;;;;;;;;;;9.00;55.17;101448.91;5041616;28;7202;-71
2022/01/27 06:05:06;;;;;;;;;;;;;;;9.01;55.12;101451.56;5025656;28;6827;-71
2022/01/27 06:07:32;;;;;;;;;;;;;;;9.00;54.40;101451.44;5015759;28;6981;-71
2022/01/27 06:09:58;;;;;;;;;;;;;;;8.98;54.60;101461.59;5037568;28;6791;-71
2022/01/27 06:12:24;;;;;;;;;;;;;;;8.97;55.34;101443.56;5038624;28;6871;-71
2022/01/27 06:14:50;;;;;;;;;;;;;;;8.91;55.02;101441.47;5007657;28;8366;-71
2022/01/27 06:17:16;;;;;;;;;;;;;;;8.88;54.10;101446.34;5022392;28;7871;-71
2022/01/27 06:19:45;;;;;;;;;;;;;;;8.84;54.92;101426.47;5002396;28;7100;-71
2022/01/27 06:22:13;;;;;;;;;;;;;;;8.84;55.16;101434.13;5022348;28;7290;-70
2022/01/27 06:24:44;;;;;;;;;;;;;;;8.84;55.19;101452.03;5032807;28;6804;-70
2022/01/27 06:27:12;;;;;;;;;;;;;;;8.84;55.41;101442.69;5008605;28;6907;-70
2022/01/27 06:29:39;;;;;;;;;;;;;;;8.85;55.64;101452.16;5027970;28;6964;-70
2022/01/27 06:32:06;;;;;;;;;;;;;;;8.85;55.12;101438.47;5034057;28;7928;-70
2022/01/27 06:34:32;;;;;;;;;;;;;;;8.84;55.93;101452.03;5039093;28;6827;-70
2022/01/27 06:36:58;;;;;;;;;;;;;;;8.85;55.99;101407.78;5017393;28;7331;-70
2022/01/27 06:39:24;;;;;;;;;;;;;;;8.86;55.32;101414.66;5020862;28;6942;-71
2022/01/27 06:41:50;;;;;;;;;;;;;;;8.89;54.75;101430.25;5016734;28;6910;-71
2022/01/27 06:44:16;;;;;;;;;;;;;;;8.90;56.01;101403.91;5017885;28;6788;-71
2022/01/27 06:46:42;;;;;;;;;;;;;;;8.89;54.61;101381.66;5018121;28;6866;-71
2022/01/27 06:49:08;;;;;;;;;;;;;;;8.87;56.07;101388.31;5032137;28;6795;-71
2022/01/27 06:51:33;;;;;;;;;;;;;;;8.87;56.01;101393.44;5001585;28;6787;-71
2022/01/27 06:53:59;;;;;;;;;;;;;;;8.90;55.07;101391.13;5032141;28;7129;-71
2022/01/27 06:56:26;;;;;;;;;;;;;;;8.89;55.60;101385.09;5035349;28;6795;-71
2022/01/27 06:58:53;;;;;;;;;;;;;;;8.86;56.19;101391.66;5028566;28;7028;-71
2022/01/27 07:01:19;;;;;;;;;;;;;;;8.87;56.02;101399.44;5020459;28;7068;-71
2022/01/27 07:03:45;;;;;;;;;;;;;;;8.85;56.11;101400.13;5065235;28;6992;-71
2022/01/27 07:06:12;;;;;;;;;;;;;;;8.86;55.41;101417.22;5020339;28;6809;-71
2022/01/27 07:08:39;;;;;;;;;;;;;;;8.84;55.93;101406.00;5002555;28;7259;-71
2022/01/27 07:11:05;;;;;;;;;;;;;;;8.83;55.75;101409.34;5026921;28;6880;-71
2022/01/27 07:13:31;;;;;;;;;;;;;;;8.85;55.92;101408.69;5019427;28;7287;-71
2022/01/27 07:15:57;;;;;;;;;;;;;;;8.89;55.11;101399.56;5048758;28;7237;-71
2022/01/27 07:18:24;;;;;;;;;;;;;;;8.92;55.32;101374.22;5020758;28;7061;-71
2022/01/27 07:20:50;;;;;;;;;;;;;;;8.98;56.27;101400.22;5029124;28;6808;-71
2022/01/27 07:23:16;;;;;;;;;;;;;;;9.05;56.72;101375.06;5029675;28;7181;-71
2022/01/27 07:25:42;;;;;;;;;;;;;;;9.09;56.32;101387.28;5029929;28;6795;-71
2022/01/27 07:28:08;;;;;;;;;;;;;;;9.16;55.14;101400.59;5019501;28;7036;-71
2022/01/27 07:30:34;;;;;;;;;;;;;;;9.24;56.32;101392.59;5024793;28;7915;-71
2022/01/27 07:33:00;;;;;;;;;;;;;;;9.29;56.11;101387.00;5022250;28;7007;-70
2022/01/27 07:35:26;;;;;;;;;;;;;;;9.34;54.87;101378.75;5050909;28;7022;-70
2022/01/27 07:37:52;;;;;;;;;;;;;;;9.37;55.10;101364.50;5035965;28;7242;-71
2022/01/27 07:40:17;;;;;;;;;;;;;;;9.41;55.65;101370.72;5038403;28;6788;-71
2022/01/27 07:42:44;;;;;;;;;;;;;;;9.42;55.34;101365.72;5037757;28;6788;-71
2022/01/27 07:45:10;;;;;;;;;;;;;;;9.44;55.03;101371.81;5022143;28;8030;-71
2022/01/27 07:47:36;;;;;;;;;;;;;;;9.48;54.96;101337.09;5020787;28;6799;-71
2022/01/27 07:50:03;;;;;;;;;;;;;;;9.50;55.31;101355.97;5024274;28;7196;-71
2022/01/27 07:52:29;;;;;;;;;;;;;;;9.55;55.16;101358.84;5023906;28;7228;-71
2022/01/27 07:54:54;;;;;;;;;;;;;;;9.57;55.53;101368.41;5018646;28;6910;-71
2022/01/27 07:57:20;;;;;;;;;;;;;;;9.59;55.54;101364.28;5026778;28;7215;-71
2022/01/27 07:59:46;;;;;;;;;;;;;;;9.63;55.15;101367.94;5038374;28;6918;-71
2022/01/27 08:02:11;;;;;;;;;;;;;;;9.65;55.48;101366.38;5039780;28;6819;-71
2022/01/27 08:04:37;;;;;;;;;;;;;;;9.69;55.92;101358.09;5039300;28;7104;-71
2022/01/27 08:07:04;;;;;;;;;;;;;;;9.71;55.66;101377.03;5035931;28;6962;-71
2022/01/27 08:09:31;;;;;;;;;;;;;;;9.71;54.79;101376.13;5036334;28;6895;-71
2022/01/27 08:11:57;;;;;;;;;;;;;;;9.73;55.77;101400.16;5026169;28;6804;-71
2022/01/27 08:14:23;;;;;;;;;;;;;;;9.75;55.39;101398.56;5046509;28;6780;-70
2022/01/27 08:16:49;;;;;;;;;;;;;;;9.74;55.64;101394.25;5025299;28;6990;-71
2022/01/27 08:19:14;;;;;;;;;;;;;;;9.74;54.82;101412.16;5028005;28;7430;-71
2022/01/27 08:21:40;;;;;;;;;;;;;;;9.73;55.87;101407.84;5028283;28;6831;-71
2022/01/27 08:24:06;;;;;;;;;;;;;;;9.72;55.36;101403.50;5061273;28;7249;-71
2022/01/27 08:29:22;;;;;;;;;;;;;;;9.70;55.58;101384.59;5037711;28;7864;-71
2022/01/27 08:31:58;;;;;;;;;;;;;;;9.69;56.00;101405.88;5028871;28;6840;-71
2022/01/27 08:34:36;;;;;;;;;;;;;;;9.68;55.33;101401.53;5041945;28;6914;-71
2022/01/27 08:37:09;;;;;;;;;;;;;;;9.69;55.95;101416.09;5038266;28;7264;-71
2022/01/27 08:39:36;;;;;;;;;;;;;;;9.67;55.54;101410.00;5018581;28;6812;-71
2022/01/27 08:42:04;;;;;;;;;;;;;;;9.61;55.30;101414.69;5025374;28;6812;-71
2022/01/27 08:44:30;;;;;;;;;;;;;;;9.54;56.57;101403.16;5019825;28;7915;-71
2022/01/27 08:46:55;;;;;;;;;;;;;;;9.46;55.92;101412.84;5023562;28;7574;-71
2022/01/27 08:49:25;;;;;;;;;;;;;;;9.38;56.81;101390.97;5037486;28;6803;-71
2022/01/27 08:51:51;;;;;;;;;;;;;;;9.32;56.83;101404.25;5013237;28;6823;-71
2022/01/27 08:54:17;;;;;;;;;;;;;;;9.27;57.43;101406.47;5018126;28;7292;-71
2022/01/27 08:56:43;;;;;;;;;;;;;;;9.24;57.80;101390.91;5022131;28;6890;-71
2022/01/27 08:59:09;;;;;;;;;;;;;;;9.24;58.52;101396.03;5022167;28;7079;-71
2022/01/27 09:01:36;;;;;;;;;;;;;;;9.25;57.17;101399.47;5041629;28;6843;-71
2022/01/27 09:04:03;;;;;;;;;;;;;;;9.24;58.39;101415.59;5022503;28;6883;-71
2022/01/27 09:06:29;;;;;;;;;;;;;;;9.24;58.21;101413.91;5014835;28;6883;-71
2022/01/27 09:08:57;;;;;;;;;;;;;;;9.25;58.40;101410.56;5022413;28;7341;-71
2022/01/27 09:11:23;;;;;;;;;;;;;;;9.27;57.93;101409.03;5030846;28;7502;-71
2022/01/27 09:13:51;;;;;;;;;;;;;;;9.29;58.38;101419.34;4994710;28;7386;-71
2022/01/27 09:16:18;;;;;;;;;;;;;;;9.30;58.37;101411.81;5013189;28;6986;-71
2022/01/27 09:18:44;;;;;;;;;;;;;;;9.29;59.16;101394.69;5035206;28;7352;-71
2022/01/27 09:21:18;;;;;;;;;;;;;;;9.29;58.93;101402.34;5005129;28;6779;-71
2022/01/27 09:23:44;;;;;;;;;;;;;;;9.28;58.44;101386.88;5021768;28;6915;-71
2022/01/27 09:26:26;;;;;;;;;;;;;;;9.27;59.50;101382.56;5018244;28;6995;-71
2022/01/27 09:28:52;;;;;;;;;;;;;;;9.27;58.90;101396.25;5037362;28;7285;-71
2022/01/27 09:31:20;;;;;;;;;;;;;;;9.26;59.87;101401.25;5032220;28;6772;-71
2022/01/27 09:33:47;;;;;;;;;;;;;;;9.24;60.23;101396.03;5062200;28;6896;-71
2022/01/27 09:36:13;;;;;;;;;;;;;;;9.24;60.38;101392.59;5049073;28;7948;-70
2022/01/27 09:38:38;;;;;;;;;;;;;;;9.26;60.59;101391.88;5049644;28;6922;-70
2022/01/27 09:41:07;;;;;;;;;;;;;;;9.28;60.95;101387.78;5032653;28;7039;-70
2022/01/27 09:43:35;;;;;;;;;;;;;;;9.30;60.67;101403.22;5028707;28;6831;-70
2022/01/27 09:46:07;;;;;;;;;;;;;;;9.31;60.96;101400.78;5019996;28;7186;-70
2022/01/27 09:48:40;;;;;;;;;;;;;;;9.35;60.92;101403.53;5029131;28;6855;-70
2022/01/27 09:53:57;;;;;;;;;;;;;;;9.39;60.46;101395.31;5028403;28;7249;-70
2022/01/27 09:56:24;;;;;;;;;;;;;;;9.44;61.16;101391.38;5022237;28;7884;-70
2022/01/27 09:58:50;;;;;;;;;;;;;;;9.46;61.06;101389.81;5040247;28;7102;-70
2022/01/27 10:01:17;;;;;;;;;;;;;;;9.49;61.17;101390.03;5013717;28;7465;-70
2022/01/27 10:03:54;;;;;;;;;;;;;;;9.54;60.48;101368.19;5036551;28;6827;-69
2022/01/27 10:06:21;;;;;;;;;;;;;;;9.58;61.81;101382.09;5027258;28;7683;-70
2022/01/27 10:09:26;;;;;;;;;;;;;;;9.59;61.87;101392.44;5028964;28;7074;-70
2022/01/27 10:11:53;;;;;;;;;;;;;;;9.65;61.82;101383.38;5006940;28;7474;-70
2022/01/27 10:14:36;;;;;;;;;;;;;;;9.69;61.36;101373.44;5040462;28;7118;-70
2022/01/27 10:17:14;;;;;;;;;;;;;;;9.71;61.65;101386.38;5028677;28;7144;-70
2022/01/27 10:19:40;;;;;;;;;;;;;;;9.72;60.85;101375.34;5022175;28;6824;-70
2022/01/27 10:22:13;;;;;;;;;;;;;;;9.73;60.71;101374.56;5026887;28;7239;-70
2022/01/27 10:24:39;;;;;;;;;;;;;;;9.74;60.79;101386.56;5029208;28;6816;-70
2022/01/27 10:32:48;;;;;;;;;;;;;;;9.82;61.54;101372.59;5017623;28;7305;-70
2022/01/27 10:35:17;;;;;;;;;;;;;;;9.84;61.97;101378.72;5011806;28;6812;-70
2022/01/27 10:38:04;;;;;;;;;;;;;;;9.88;61.90;101377.25;5021709;28;7249;-70
2022/01/27 10:40:41;;;;;;;;;;;;;;;9.92;61.54;101381.81;5030618;28;6819;-70
2022/01/27 10:43:19;;;;;;;;;;;;;;;9.97;61.52;101369.31;5011771;28;6977;-70
2022/01/27 10:46:13;;;;;;;;;;;;;;;10.00;61.89;101385.75;5035063;28;6981;-70
2022/01/27 10:48:58;;;;;;;;;;;;;;;10.02;62.10;101380.72;5022548;28;6828;-70
2022/01/27 10:51:34;;;;;;;;;;;;;;;10.05;61.58;101380.94;5038097;28;7483;-70
2022/01/27 10:54:06;;;;;;;;;;;;;;;10.06;61.25;101371.56;5023709;28;6815;-70
2022/01/27 10:56:39;;;;;;;;;;;;;;;10.07;62.09;101381.03;5025360;28;7169;-70
2022/01/27 10:59:11;;;;;;;;;;;;;;;10.07;62.16;101357.97;5019665;28;7240;-70
2022/01/27 11:01:51;;;;;;;;;;;;;;;10.08;61.96;101373.44;5024589;28;7042;-70
2022/01/27 11:04:19;;;;;;;;;;;;;;;10.10;62.03;101368.44;5022048;28;6839;-70
2022/01/27 11:06:58;;;;;;;;;;;;;;;10.12;61.64;101369.41;5038034;28;7010;-70
2022/01/27 11:09:26;;;;;;;;;;;;;;;10.15;61.87;101379.84;5025133;28;7050;-70
2022/01/27 11:11:53;;;;;;;;;;;;;;;10.21;61.81;101367.47;5058097;28;6812;-70
2022/01/27 11:14:22;;;;;;;;;;;;;;;10.27;62.29;101362.72;4988312;28;6995;-70
2022/01/27 11:16:51;;;;;;;;;;;;;;;10.31;62.29;101371.47;5026649;28;6982;-70
2022/01/27 11:21:51;;;;;;;;;;;;;;;10.34;61.74;101356.34;5042613;28;6792;-70
2022/01/27 11:24:27;;;;;;;;;;;;;;;10.34;61.38;101360.56;5024120;28;7258;-70
2022/01/27 11:26:58;;;;;;;;;;;;;;;10.32;61.51;101373.25;5022811;28;6823;-70
2022/01/27 11:29:26;;;;;;;;;;;;;;;10.32;61.49;101373.25;5025283;28;6816;-70
2022/01/27 11:32:17;;;;;;;;;;;;;;;10.31;61.63;101366.38;5023490;28;7019;-70
2022/01/27 11:34:49;;;;;;;;;;;;;;;10.28;62.24;101356.81;5020209;28;6891;-70
2022/01/27 11:37:18;;;;;;;;;;;;;;;10.28;62.35;101325.19;5043197;28;7030;-70
2022/01/27 11:39:56;;;;;;;;;;;;;;;10.29;62.28;101337.19;5056762;28;6851;-70
2022/01/27 11:42:41;;;;;;;;;;;;;;;10.27;61.85;101318.28;5038381;28;7293;-70
2022/01/27 11:45:22;;;;;;;;;;;;;;;10.28;62.66;101326.06;5038502;28;6827;-70
2022/01/27 11:48:06;;;;;;;;;;;;;;;10.32;62.50;101322.00;5040380;28;6999;-70
2022/01/27 11:50:49;;;;;;;;;;;;;;;10.34;62.03;101330.72;5018648;28;6815;-70
2022/01/27 11:53:48;;;;;;;;;;;;;;;10.36;62.83;101336.81;5040438;28;6836;-70
2022/01/27 11:56:30;;;;;;;;;;;;;;;10.37;62.82;101323.19;5020666;28;6871;-70
2022/01/27 11:59:04;;;;;;;;;;;;;;;10.37;62.05;101328.31;5037649;28;6828;-70
2022/01/27 12:01:37;;;;;;;;;;;;;;;10.39;62.24;101326.75;5038404;28;6835;-70
2022/01/27 12:04:06;;;;;;;;;;;;;;;10.41;62.19;101317.50;5041040;28;7218;-70
2022/01/27 12:06:36;;;;;;;;;;;;;;;10.44;62.33;101314.25;5041986;28;6880;-70
2022/01/27 12:09:17;;;;;;;;;;;;;;;10.46;62.17;101324.63;5023091;28;7049;-70
2022/01/27 12:11:50;;;;;;;;;;;;;;;10.45;62.24;101322.84;5041851;28;7337;-70
2022/01/27 12:14:49;;;;;;;;;;;;;;;10.44;62.10;101324.50;5006367;28;7235;-70
2022/01/27 12:17:15;;;;;;;;;;;;;;;10.45;62.73;101323.72;5011243;28;6992;-70
2022/01/27 12:20:02;;;;;;;;;;;;;;;10.46;62.55;101306.69;5024648;28;6819;-70
2022/01/27 12:22:45;;;;;;;;;;;;;;;10.46;62.31;101314.38;5039051;28;7199;-70
2022/01/27 12:25:14;;;;;;;;;;;;;;;10.45;62.89;101304.91;5039202;28;6820;-70
2022/01/27 12:27:48;;;;;;;;;;;;;;;10.45;62.39;101298.09;5024232;28;6843;-71
2022/01/27 12:30:14;;;;;;;;;;;;;;;10.46;62.26;101289.59;5022239;28;6820;-70
2022/01/27 12:32:40;;;;;;;;;;;;;;;10.48;62.47;101282.03;5034353;28;6940;-70
2022/01/27 12:35:09;;;;;;;;;;;;;;;10.49;62.22;101300.06;5024540;28;7100;-70
2022/01/27 12:37:47;;;;;;;;;;;;;;;10.51;62.42;101293.34;5021745;28;6804;-70
2022/01/27 12:40:25;;;;;;;;;;;;;;;10.53;62.72;101291.75;5031722;28;6804;-70
2022/01/27 12:43:13;;;;;;;;;;;;;;;10.54;62.44;101287.53;5034378;28;6807;-70
2022/01/27 12:45:42;;;;;;;;;;;;;;;10.58;62.93;101302.31;5015725;28;7090;-70
2022/01/27 12:48:11;;;;;;;;;;;;;;;10.62;62.24;101295.69;5026771;28;7359;-70
2022/01/27 12:50:37;;;;;;;;;;;;;;;10.64;62.74;101295.00;5037346;28;6811;-71
2022/01/27 12:53:11;;;;;;;;;;;;;;;10.65;62.67;101281.41;5037643;28;6828;-70
2022/01/27 12:55:40;;;;;;;;;;;;;;;10.66;62.40;101290.84;5019985;28;6909;-70
2022/01/27 12:58:15;;;;;;;;;;;;;;;10.68;62.73;101289.25;5021967;28;6810;-70
2022/01/27 13:00:48;;;;;;;;;;;;;;;10.69;62.47;101287.59;5029322;28;6827;-70
2022/01/27 13:03:15;;;;;;;;;;;;;;;10.70;62.69;101292.81;5030487;28;6899;-70
2022/01/27 13:05:48;;;;;;;;;;;;;;;10.69;62.51;101283.34;5037193;28;7487;-70
2022/01/27 13:08:20;;;;;;;;;;;;;;;10.68;62.32;101281.56;5040675;28;6831;-70
2022/01/27 13:10:55;;;;;;;;;;;;;;;10.68;62.43;101291.81;5029309;28;6816;-70
2022/01/27 13:13:25;;;;;;;;;;;;;;;10.67;62.36;101284.94;5046141;28;7165;-70
2022/01/27 13:16:03;;;;;;;;;;;;;;;10.66;62.52;101278.03;5029787;28;6872;-70
2022/01/27 13:18:38;;;;;;;;;;;;;;;10.67;62.89;101278.91;5032526;28;6953;-70
2022/01/27 13:21:06;;;;;;;;;;;;;;;10.69;63.05;101277.34;5047501;28;7035;-70
2022/01/27 13:23:37;;;;;;;;;;;;;;;10.71;62.90;101280.88;5027198;28;7250;-70
2022/01/27 13:26:09;;;;;;;;;;;;;;;10.73;62.83;101269.03;5021474;28;6888;-70
2022/01/27 13:28:38;;;;;;;;;;;;;;;10.74;62.92;101269.94;5027817;28;7002;-70
2022/01/27 13:31:13;;;;;;;;;;;;;;;10.76;62.80;101265.78;5002477;28;7192;-70
2022/01/27 13:33:41;;;;;;;;;;;;;;;10.75;62.94;101269.13;5038349;28;6820;-70
2022/01/27 13:36:21;;;;;;;;;;;;;;;10.74;63.16;101264.81;5028174;28;7288;-70
2022/01/27 13:41:40;;;;;;;;;;;;;;;10.75;63.48;101266.56;5029091;28;7469;-70
2022/01/27 13:44:23;;;;;;;;;;;;;;;10.77;62.78;101267.56;5025637;28;6895;-70
2022/01/27 13:46:55;;;;;;;;;;;;;;;10.79;63.17;101268.53;5019653;28;6847;-70
2022/01/27 13:49:33;;;;;;;;;;;;;;;10.80;63.24;101260.03;5036102;28;7132;-70
2022/01/27 13:52:07;;;;;;;;;;;;;;;10.82;63.50;101266.16;5021887;28;6831;-70
2022/01/27 13:54:35;;;;;;;;;;;;;;;10.83;63.28;101273.94;5037918;28;7215;-70
2022/01/27 13:57:12;;;;;;;;;;;;;;;10.86;63.32;101273.25;5023941;28;7317;-70
2022/01/27 13:59:58;;;;;;;;;;;;;;;10.89;63.46;101270.84;5042422;28;6843;-70
2022/01/27 14:02:31;;;;;;;;;;;;;;;10.90;62.88;101267.50;5024061;28;7896;-70
2022/01/27 14:05:02;;;;;;;;;;;;;;;10.94;63.18;101276.25;5010319;28;6820;-70
2022/01/27 14:07:34;;;;;;;;;;;;;;;10.97;63.14;101284.16;5025702;28;6894;-70